Terminal Aerodrome Forecast
Issued by NWS

Home | Current Version | Previous Version | Text Only | Print | Product List | Glossary Off
Versions: 1 2 3 4 5 6 7 8 9 10 11 12 13 14 15 16 17

000
FTUS43 KABR 281120
TAFMBG
TAF
KMBG 281120Z 2812/2912 34003KT P6SM VCSH BKN008 OVC030
      TEMPO 2812/2816 BKN015
     FM281600 04008KT P6SM VCSH OVC015
     FM281800 05010KT P6SM OVC025
     FM282000 06010KT P6SM OVC035=

USA.gov is the U.S. government's official web portal to all federal, state and local government web resources and services.